createdAt,value
2022-09-15T10:21:16.402Z,236.25
2022-09-15T10:22:16.372Z,236.25
2022-09-15T10:23:17.480Z,236.25
2022-09-15T10:24:18.175Z,247.50
2022-09-15T10:25:18.475Z,281.25
2022-09-15T10:26:17.482Z,292.50
2022-09-15T10:27:17.437Z,292.50
2022-09-15T10:28:17.430Z,281.25
2022-09-15T10:29:17.424Z,275.62
2022-09-15T10:30:17.433Z,258.75
2022-09-15T10:31:17.497Z,236.25
2022-09-15T10:32:19.755Z,219.38
2022-09-15T10:33:17.375Z,241.88
2022-09-15T10:34:17.380Z,281.25
2022-09-15T10:35:17.401Z,348.75
2022-09-15T10:36:17.347Z,376.88
2022-09-15T10:37:17.340Z,354.38
2022-09-15T10:38:17.325Z,343.12
2022-09-15T10:39:17.315Z,337.50
2022-09-15T10:41:01.792Z,337.50
2022-09-15T10:42:01.765Z,354.38
2022-09-15T10:43:02.922Z,393.75
2022-09-15T10:44:02.865Z,388.12
2022-09-15T10:45:02.866Z,354.38
2022-09-15T10:46:02.919Z,320.62
2022-09-15T10:47:02.836Z,292.50
2022-09-15T10:48:02.819Z,270.00
2022-09-15T10:49:02.810Z,236.25
2022-09-15T10:50:02.827Z,202.50
2022-09-15T10:51:02.799Z,185.62
2022-09-15T10:52:02.794Z,185.62
2022-09-15T10:53:02.791Z,191.25
2022-09-15T10:54:02.781Z,196.88
2022-09-15T10:55:02.789Z,196.88
2022-09-15T10:56:02.742Z,191.25
2022-09-15T10:57:02.751Z,180.00
2022-09-15T10:58:02.719Z,174.38
2022-09-15T10:59:02.708Z,168.75
2022-09-15T11:00:02.699Z,174.38
2022-09-15T11:01:02.780Z,174.38
2022-09-15T11:02:02.736Z,174.38
2022-09-15T11:03:03.680Z,174.38
2022-09-15T11:04:02.656Z,174.38
2022-09-15T11:05:02.669Z,174.38
2022-09-15T11:06:02.659Z,174.38
2022-09-15T11:07:02.626Z,174.38
2022-09-15T11:08:02.619Z,174.38
2022-09-15T11:09:02.621Z,174.38
2022-09-15T11:10:02.612Z,174.38
2022-09-15T11:11:02.633Z,180.00
2022-09-15T11:12:03.116Z,180.00
2022-09-15T11:13:02.609Z,185.62
2022-09-15T11:14:02.610Z,196.88
2022-09-15T11:15:02.557Z,202.50
2022-09-15T11:16:02.603Z,213.75
2022-09-15T11:17:02.574Z,236.25
2022-09-15T11:18:02.615Z,258.75
2022-09-15T11:19:02.523Z,298.12
2022-09-15T11:20:02.533Z,326.25
2022-09-15T11:21:02.521Z,343.12
2022-09-15T11:22:02.504Z,331.88
2022-09-15T11:23:03.210Z,315.00
2022-09-15T11:24:02.467Z,292.50
2022-09-15T11:25:03.054Z,275.62
2022-09-15T11:26:02.455Z,264.38
2022-09-15T11:27:02.586Z,247.50
2022-09-15T11:28:02.420Z,236.25
2022-09-15T11:29:02.874Z,225.00
2022-09-15T11:30:02.412Z,213.75
2022-09-15T11:31:02.468Z,213.75
2022-09-15T11:33:02.384Z,213.75
2022-09-15T11:34:02.389Z,213.75
2022-09-15T11:35:02.347Z,219.38
2022-09-15T11:36:02.355Z,236.25
2022-09-15T11:37:02.331Z,253.12
2022-09-15T11:38:02.333Z,258.75
2022-09-15T11:39:02.300Z,270.00
2022-09-15T11:40:02.377Z,275.62
2022-09-15T11:41:02.292Z,275.62
2022-09-15T11:42:02.286Z,258.75
2022-09-15T11:43:02.280Z,230.62
2022-09-15T11:44:02.283Z,219.38
2022-09-15T11:45:02.289Z,225.00
2022-09-15T11:46:02.313Z,230.62
2022-09-15T11:47:02.274Z,236.25
2022-09-15T11:48:02.259Z,241.88
2022-09-15T11:49:02.231Z,264.38
2022-09-15T11:50:02.229Z,286.88
2022-09-15T11:51:02.233Z,309.38
2022-09-15T11:52:02.226Z,343.12
2022-09-15T11:53:02.193Z,371.25
2022-09-15T11:54:02.178Z,382.50
2022-09-15T11:55:02.189Z,354.38
2022-09-15T11:56:02.191Z,337.50
2022-09-15T11:57:02.160Z,343.12
2022-09-15T11:58:02.146Z,348.75
2022-09-15T11:59:02.134Z,354.38
2022-09-15T12:00:02.125Z,376.88
2022-09-15T12:01:02.122Z,399.38
2022-09-15T12:02:02.188Z,405.00
2022-09-15T12:03:02.113Z,410.62
2022-09-15T12:04:02.069Z,410.62
2022-09-15T12:05:02.045Z,405.00
2022-09-15T12:06:02.091Z,393.75
2022-09-15T12:07:02.130Z,376.88
2022-09-15T12:08:02.168Z,371.25
2022-09-15T12:09:02.010Z,348.75
2022-09-15T12:10:01.989Z,337.50
2022-09-15T12:11:02.051Z,348.75
2022-09-15T12:12:02.012Z,348.75
2022-09-15T12:13:02.089Z,343.12
2022-09-15T12:14:02.012Z,354.38
2022-09-15T12:15:01.977Z,376.88
2022-09-15T12:16:01.946Z,365.62
2022-09-15T12:17:01.941Z,343.12
2022-09-15T12:18:06.610Z,365.62
2022-09-15T12:19:02.909Z,365.62
2022-09-15T12:20:02.413Z,410.62
2022-09-15T12:21:01.882Z,466.88
2022-09-15T12:22:01.882Z,489.38
2022-09-15T12:23:01.857Z,478.12
2022-09-15T12:24:01.845Z,466.88
2022-09-15T12:25:01.905Z,478.12
2022-09-15T12:26:01.876Z,489.38
2022-09-15T12:27:01.908Z,483.75
2022-09-15T12:28:01.861Z,472.50
2022-09-15T12:29:01.894Z,450.00
2022-09-15T12:30:01.861Z,433.12
2022-09-15T12:31:01.905Z,444.38
2022-09-15T12:32:01.855Z,472.50
2022-09-15T12:33:01.798Z,483.75
2022-09-15T12:34:01.756Z,489.38
2022-09-15T12:35:01.741Z,483.75
2022-09-15T12:36:01.736Z,478.12
2022-09-15T12:37:01.735Z,675.00
2022-09-15T12:38:01.712Z,635.62
2022-09-15T12:39:01.704Z,624.38
2022-09-15T12:40:01.803Z,461.25
2022-09-15T12:41:01.673Z,483.75
2022-09-15T12:42:01.693Z,416.25
2022-09-15T12:43:01.650Z,416.25
2022-09-15T12:44:01.644Z,421.88
2022-09-15T12:45:01.641Z,410.62
2022-09-15T12:46:01.702Z,410.62
2022-09-15T12:47:01.637Z,450.00
2022-09-15T12:48:01.600Z,517.50
2022-09-15T12:49:01.599Z,511.88
2022-09-15T12:50:01.580Z,466.88
2022-09-15T12:51:01.582Z,444.38
2022-09-15T12:52:01.595Z,416.25
2022-09-15T12:53:01.561Z,376.88
2022-09-15T12:54:01.543Z,416.25
2022-09-15T12:55:01.539Z,376.88
2022-09-15T12:56:01.529Z,348.75
2022-09-15T12:57:01.536Z,348.75
2022-09-15T12:58:01.543Z,360.00
2022-09-15T12:59:05.898Z,399.38
2022-09-15T13:00:03.554Z,405.00
2022-09-15T13:01:17.616Z,399.38
2022-09-15T13:02:03.576Z,393.75
2022-09-15T13:03:01.506Z,399.38
2022-09-15T13:04:01.722Z,410.62
2022-09-15T13:05:01.446Z,399.38
2022-09-15T13:06:01.425Z,371.25
2022-09-15T13:07:01.438Z,360.00
2022-09-15T13:08:01.405Z,354.38
2022-09-15T13:09:01.390Z,371.25
2022-09-15T13:10:01.380Z,399.38
2022-09-15T13:11:01.380Z,427.50
2022-09-15T13:12:01.366Z,450.00
2022-09-15T13:13:01.393Z,455.62
2022-09-15T13:14:01.342Z,466.88
2022-09-15T13:15:01.332Z,483.75
2022-09-15T13:16:01.395Z,483.75
2022-09-15T13:17:01.313Z,489.38
2022-09-15T13:18:01.334Z,495.00
2022-09-15T13:19:01.301Z,500.62
2022-09-15T13:20:01.290Z,500.62
2022-09-15T13:21:01.283Z,495.00
2022-09-15T13:22:01.270Z,483.75
2022-09-15T13:23:01.287Z,472.50
2022-09-15T13:24:01.249Z,461.25
2022-09-15T13:25:02.047Z,455.62
2022-09-15T13:26:36.969Z,455.62
2022-09-15T13:27:01.229Z,450.00
2022-09-15T13:28:01.267Z,427.50
2022-09-15T13:29:01.249Z,421.88
2022-09-15T13:30:01.260Z,416.25
2022-09-15T13:31:01.277Z,410.62
2022-09-15T13:32:01.212Z,405.00
2022-09-15T13:33:01.220Z,399.38
2022-09-15T13:35:15.185Z,382.50
2022-09-15T13:36:10.955Z,376.88
2022-09-15T13:38:21.867Z,382.50
2022-09-15T13:39:13.150Z,382.50
2022-09-15T13:41:21.597Z,382.50
2022-09-15T13:42:21.719Z,376.88
2022-09-15T13:45:31.970Z,348.75
2022-09-15T13:46:32.009Z,337.50
2022-09-15T13:47:33.105Z,315.00
2022-09-15T13:48:33.074Z,292.50
2022-09-15T13:49:33.063Z,275.62
2022-09-15T13:50:33.097Z,253.12
2022-09-15T13:51:33.135Z,230.62
2022-09-15T13:52:33.173Z,219.38
2022-09-15T13:53:33.186Z,219.38
